createdAt,value
2023-01-21T00:00:09.788Z,101760.03
2023-01-21T00:02:54.600Z,101756.66
2023-01-21T00:05:39.794Z,101753.09
2023-01-21T00:08:25.692Z,101757.31
2023-01-21T00:11:14.409Z,101759.03
2023-01-21T00:13:59.499Z,101763.72
2023-01-21T00:16:44.601Z,101775.16
2023-01-21T00:19:29.702Z,101777.56
2023-01-21T00:22:14.964Z,101783.44
2023-01-21T00:25:00.084Z,101788.59
2023-01-21T00:27:44.988Z,101795.75
2023-01-21T00:30:30.586Z,101798.44
2023-01-21T00:33:15.458Z,101801.03
2023-01-21T00:36:07.194Z,101799.44
2023-01-21T00:38:51.873Z,101802.91
2023-01-21T00:41:37.322Z,101808.38
2023-01-21T00:44:22.391Z,101812.81
2023-01-21T00:47:07.437Z,101819.00
2023-01-21T00:49:52.488Z,101827.66
2023-01-21T00:52:38.513Z,101831.00
2023-01-21T00:55:23.638Z,101837.88
2023-01-21T00:58:09.043Z,101846.91
2023-01-21T01:01:05.606Z,101843.47
2023-01-21T01:03:50.588Z,101853.91
2023-01-21T01:06:35.566Z,101861.94
2023-01-21T01:09:20.220Z,101861.00
2023-01-21T01:12:06.164Z,101863.75
2023-01-21T01:14:51.332Z,101868.94
2023-01-21T01:17:36.447Z,101875.97
2023-01-21T01:20:21.466Z,101876.84
2023-01-21T01:23:06.327Z,101878.69
2023-01-21T01:25:58.714Z,101889.28
2023-01-21T01:28:43.912Z,101888.31
2023-01-21T01:31:29.108Z,101893.25
2023-01-21T01:34:14.145Z,101898.69
2023-01-21T01:36:59.469Z,101900.34
2023-01-21T01:39:44.374Z,101910.72
2023-01-21T01:42:29.443Z,101920.06
2023-01-21T01:45:14.568Z,101920.94
2023-01-21T01:48:06.104Z,101926.13
2023-01-21T01:50:51.774Z,101931.16
2023-01-21T01:53:41.883Z,101936.69
2023-01-21T01:56:29.156Z,101936.81
2023-01-21T01:59:14.148Z,101939.56
2023-01-21T02:02:04.625Z,101939.78
2023-01-21T02:04:57.001Z,101945.91
2023-01-21T02:07:44.952Z,101951.34
2023-01-21T02:10:31.687Z,101954.84
2023-01-21T02:13:17.534Z,101960.97
2023-01-21T02:16:13.682Z,101959.56
2023-01-21T02:19:32.448Z,101970.66
2023-01-21T02:22:36.703Z,101965.13
2023-01-21T02:26:00.528Z,101974.81
2023-01-21T02:29:01.797Z,101973.97
2023-01-21T02:31:58.271Z,101978.47
2023-01-21T02:34:55.525Z,101976.06
2023-01-21T02:38:32.062Z,101977.00
2023-01-21T02:41:26.739Z,101978.75
2023-01-21T02:44:37.537Z,101984.81
2023-01-21T02:47:29.173Z,101994.56
2023-01-21T02:50:20.187Z,101996.22
2023-01-21T02:53:05.424Z,101998.91
2023-01-21T02:55:50.114Z,102004.00
2023-01-21T02:58:39.119Z,102008.28
2023-01-21T03:01:40.851Z,102003.84
2023-01-21T03:04:37.660Z,102004.25
2023-01-21T03:07:30.754Z,102017.88
2023-01-21T03:10:42.050Z,102013.38
2023-01-21T03:14:06.692Z,102007.56
2023-01-21T03:17:01.837Z,102014.56
2023-01-21T03:20:02.635Z,102013.94
2023-01-21T03:22:49.827Z,102012.25
2023-01-21T03:25:35.873Z,102023.53
2023-01-21T03:28:24.334Z,102027.97
2023-01-21T03:31:16.538Z,102040.91
2023-01-21T03:34:07.068Z,102038.19
2023-01-21T03:37:01.038Z,102040.94
2023-01-21T03:40:05.394Z,102047.16
2023-01-21T03:42:51.401Z,102050.66
2023-01-21T03:46:03.174Z,102043.72
2023-01-21T03:48:52.650Z,102050.75
2023-01-21T03:51:41.931Z,102048.97
2023-01-21T03:54:27.441Z,102048.16
2023-01-21T03:57:12.562Z,102047.34
2023-01-21T03:59:57.574Z,102051.56
2023-01-21T04:02:42.516Z,102059.28
2023-01-21T04:05:27.446Z,102054.28
2023-01-21T04:08:12.209Z,102063.63
2023-01-21T04:10:57.305Z,102062.91
2023-01-21T04:13:42.435Z,102064.88
2023-01-21T04:16:27.335Z,102066.63
2023-01-21T04:19:12.300Z,102064.13
2023-01-21T04:21:57.094Z,102078.84
2023-01-21T04:24:42.193Z,102071.22
2023-01-21T04:27:27.283Z,102077.19
2023-01-21T04:30:12.654Z,102079.69
2023-01-21T04:32:57.490Z,102088.41
2023-01-21T04:35:42.835Z,102094.50
2023-01-21T04:38:27.943Z,102095.34
2023-01-21T04:41:12.937Z,102094.41
2023-01-21T04:43:57.875Z,102095.34
2023-01-21T04:46:42.764Z,102099.16
2023-01-21T04:49:27.845Z,102107.84
2023-01-21T04:52:12.904Z,102102.78
2023-01-21T04:54:58.065Z,102108.78
2023-01-21T04:57:42.723Z,102107.84
2023-01-21T05:00:27.571Z,102107.81
2023-01-21T05:03:12.424Z,102124.25
2023-01-21T05:05:57.148Z,102118.13
2023-01-21T05:08:42.480Z,102115.75
2023-01-21T05:11:27.559Z,102128.81
2023-01-21T05:14:12.644Z,102128.66
2023-01-21T05:16:58.697Z,102129.44
2023-01-21T05:19:43.861Z,102135.56
2023-01-21T05:22:28.790Z,102130.47
2023-01-21T05:25:13.861Z,102131.44
2023-01-21T05:27:58.834Z,102136.72
2023-01-21T05:30:44.704Z,102139.31
2023-01-21T05:33:31.798Z,102139.44
2023-01-21T05:36:16.764Z,102148.22
2023-01-21T05:39:01.553Z,102149.75
2023-01-21T05:41:46.370Z,102159.34
2023-01-21T05:44:31.387Z,102163.84
2023-01-21T05:47:16.501Z,102165.63
2023-01-21T05:50:01.331Z,102176.91
2023-01-21T05:52:46.410Z,102184.00
2023-01-21T05:55:31.550Z,102183.09
2023-01-21T05:58:16.386Z,102177.94
2023-01-21T06:01:01.543Z,102189.28
2023-01-21T06:03:46.367Z,102194.28
2023-01-21T06:06:31.472Z,102197.75
2023-01-21T06:09:16.629Z,102205.66
2023-01-21T06:12:01.576Z,102198.69
2023-01-21T06:14:46.370Z,102201.41
2023-01-21T06:17:31.326Z,102195.47
2023-01-21T06:20:16.590Z,102202.34
2023-01-21T06:23:03.400Z,102204.06
2023-01-21T06:25:48.344Z,102215.22
2023-01-21T06:28:33.327Z,102220.28
2023-01-21T06:31:18.470Z,102227.06
2023-01-21T06:34:03.712Z,102226.00
2023-01-21T06:36:48.645Z,102228.00
2023-01-21T06:39:33.468Z,102225.47
2023-01-21T06:42:18.507Z,102234.91
2023-01-21T06:45:03.916Z,102240.09
2023-01-21T06:47:48.908Z,102238.56
2023-01-21T06:50:34.101Z,102241.31
2023-01-21T06:53:18.959Z,102246.56
2023-01-21T06:56:04.238Z,102257.88
2023-01-21T06:58:49.385Z,102260.47
2023-01-21T07:01:34.504Z,102268.47
2023-01-21T07:04:19.605Z,102257.25
2023-01-21T07:07:04.827Z,102254.72
2023-01-21T07:09:49.747Z,102257.41
2023-01-21T07:12:34.764Z,102259.16
2023-01-21T07:15:20.108Z,102266.72
2023-01-21T07:18:05.387Z,102271.00
2023-01-21T07:20:50.157Z,102273.81
2023-01-21T07:23:35.395Z,102272.03
2023-01-21T07:26:20.373Z,102283.25
2023-01-21T07:29:09.006Z,102285.97
2023-01-21T07:31:54.230Z,102293.63
2023-01-21T07:34:39.350Z,102289.81
2023-01-21T07:37:24.556Z,102297.66
2023-01-21T07:40:09.984Z,102298.88
2023-01-21T07:42:55.632Z,102303.19
2023-01-21T07:45:40.954Z,102306.66
2023-01-21T07:48:25.854Z,102307.50
2023-01-21T07:51:10.924Z,102314.34
2023-01-21T07:53:56.717Z,102311.19
2023-01-21T07:56:41.823Z,102322.41
2023-01-21T07:59:26.725Z,102308.59
2023-01-21T08:02:12.528Z,102314.56
2023-01-21T08:04:57.646Z,102321.59
2023-01-21T08:07:42.705Z,102319.69
2023-01-21T08:10:27.712Z,102325.13
2023-01-21T08:13:12.439Z,102327.91
2023-01-21T08:15:57.550Z,102326.50
2023-01-21T08:18:42.464Z,102332.50
2023-01-21T08:21:27.632Z,102338.25
2023-01-21T08:24:12.793Z,102333.97
2023-01-21T08:26:59.195Z,102334.41
2023-01-21T08:29:44.154Z,102339.81
2023-01-21T08:32:30.968Z,102335.66
2023-01-21T08:35:16.160Z,102339.59
2023-01-21T08:38:02.345Z,102345.09
2023-01-21T08:40:47.650Z,102354.25
2023-01-21T08:43:32.621Z,102351.38
2023-01-21T08:46:17.430Z,102347.75
2023-01-21T08:49:02.712Z,102357.34
2023-01-21T08:51:47.384Z,102356.06
2023-01-21T08:54:32.154Z,102369.59
2023-01-21T08:57:17.217Z,102366.50
2023-01-21T09:00:02.108Z,102373.50
2023-01-21T09:02:47.153Z,102375.88
2023-01-21T09:05:31.960Z,102377.59
2023-01-21T09:08:18.156Z,102382.88
2023-01-21T09:11:05.239Z,102378.19
2023-01-21T09:13:50.312Z,102383.72
2023-01-21T09:16:36.202Z,102387.19
2023-01-21T09:19:21.289Z,102387.63
2023-01-21T09:22:06.434Z,102394.19
2023-01-21T09:24:51.840Z,102401.59
2023-01-21T09:27:37.646Z,102396.03
2023-01-21T09:30:22.689Z,102407.03
2023-01-21T09:33:07.556Z,102409.97
2023-01-21T09:35:56.418Z,102397.09
2023-01-21T09:38:42.729Z,102407.34
2023-01-21T09:41:40.838Z,102413.38
2023-01-21T09:44:43.801Z,102415.31
2023-01-21T09:47:35.827Z,102408.91
2023-01-21T09:50:23.161Z,102417.13
2023-01-21T09:53:35.212Z,102420.59
2023-01-21T09:56:30.625Z,102414.84
2023-01-21T09:59:27.355Z,102424.88
2023-01-21T10:02:26.473Z,102432.94
2023-01-21T10:05:30.735Z,102431.28
2023-01-21T10:08:51.324Z,102433.25
2023-01-21T10:11:52.740Z,102428.78
2023-01-21T10:14:49.873Z,102434.69
2023-01-21T10:17:41.197Z,102441.50
2023-01-21T10:20:50.689Z,102436.25
2023-01-21T10:23:45.601Z,102433.19
2023-01-21T10:26:33.757Z,102439.63
2023-01-21T10:29:24.085Z,102441.75
2023-01-21T10:32:15.080Z,102444.56
2023-01-21T10:35:00.711Z,102442.16
2023-01-21T10:38:00.567Z,102444.94
2023-01-21T10:40:56.974Z,102448.50
2023-01-21T10:43:54.634Z,102444.84
2023-01-21T10:47:00.813Z,102448.69
2023-01-21T10:49:57.863Z,102448.66
2023-01-21T10:52:52.053Z,102454.41
2023-01-21T10:56:00.478Z,102450.94
2023-01-21T10:59:05.686Z,102457.22
2023-01-21T11:01:58.417Z,102454.06
2023-01-21T11:04:44.380Z,102466.16
2023-01-21T11:07:37.619Z,102463.59
2023-01-21T11:10:25.973Z,102464.22
2023-01-21T11:13:13.948Z,102463.94
2023-01-21T11:16:00.101Z,102461.97
2023-01-21T11:18:45.020Z,102453.34
2023-01-21T11:21:30.111Z,102467.25
2023-01-21T11:24:24.247Z,102466.03
2023-01-21T11:27:22.510Z,102464.13
2023-01-21T11:30:48.216Z,102462.66
2023-01-21T11:33:34.561Z,102463.47
2023-01-21T11:36:21.129Z,102464.59
2023-01-21T11:39:09.319Z,102466.69
2023-01-21T11:41:57.012Z,102472.66
2023-01-21T11:44:57.356Z,102472.03
2023-01-21T11:47:48.780Z,102473.06
2023-01-21T11:50:40.482Z,102462.56
2023-01-21T11:53:25.897Z,102462.69
2023-01-21T11:56:10.734Z,102460.56
2023-01-21T11:58:55.740Z,102462.50
2023-01-21T12:01:40.849Z,102451.88
2023-01-21T12:04:26.614Z,102436.44
2023-01-21T12:07:21.121Z,102430.72
2023-01-21T12:10:12.179Z,102423.72
2023-01-21T12:13:30.056Z,102429.44
2023-01-21T12:16:25.383Z,102432.44
2023-01-21T12:19:53.636Z,102413.97
2023-01-21T12:23:07.337Z,102418.34
2023-01-21T12:26:01.113Z,102413.66
2023-01-21T12:29:02.236Z,102412.22
2023-01-21T12:31:58.976Z,102414.72
2023-01-21T12:34:51.249Z,102409.56
2023-01-21T12:37:51.321Z,102412.91
2023-01-21T12:40:59.927Z,102415.97
2023-01-21T12:43:54.276Z,102417.81
2023-01-21T12:46:44.421Z,102414.66
2023-01-21T12:49:48.899Z,102412.47
2023-01-21T12:53:00.405Z,102410.28
2023-01-21T12:55:54.698Z,102409.09
2023-01-21T12:58:45.717Z,102407.28
2023-01-21T13:01:42.635Z,102411.44
2023-01-21T13:04:49.874Z,102417.63
2023-01-21T13:08:05.342Z,102412.19
2023-01-21T13:10:57.212Z,102410.16
2023-01-21T13:13:51.434Z,102420.50
2023-01-21T13:16:41.642Z,102420.13
2023-01-21T13:19:26.844Z,102414.88
2023-01-21T13:22:27.243Z,102420.19
2023-01-21T13:25:29.630Z,102416.44
2023-01-21T13:28:37.993Z,102418.25
2023-01-21T13:31:58.971Z,102421.78
2023-01-21T13:35:16.575Z,102420.66
2023-01-21T13:38:23.931Z,102417.97
2023-01-21T13:41:48.971Z,102420.66
2023-01-21T13:44:54.564Z,102427.75
2023-01-21T13:48:01.875Z,102422.50
2023-01-21T13:51:02.484Z,102424.28
2023-01-21T13:54:19.257Z,102431.25
2023-01-21T13:57:14.471Z,102435.44
2023-01-21T14:00:34.104Z,102431.25
2023-01-21T14:03:29.558Z,102440.00
2023-01-21T14:06:31.783Z,102441.81
2023-01-21T14:09:24.489Z,102439.13
2023-01-21T14:12:20.515Z,102445.09
2023-01-21T14:15:26.455Z,102444.25
2023-01-21T14:18:22.519Z,102440.00
2023-01-21T14:21:27.963Z,102447.06
2023-01-21T14:24:30.882Z,102449.00
2023-01-21T14:27:46.229Z,102450.66
2023-01-21T14:30:41.116Z,102461.88
2023-01-21T14:33:49.793Z,102458.66
2023-01-21T14:36:53.153Z,102453.25
2023-01-21T14:39:57.577Z,102457.84
2023-01-21T14:42:49.103Z,102460.44
2023-01-21T14:45:49.305Z,102465.53
2023-01-21T14:48:38.661Z,102461.25
2023-01-21T14:51:23.827Z,102464.59
2023-01-21T14:54:23.123Z,102466.47
2023-01-21T14:57:21.448Z,102462.94
2023-01-21T15:00:21.905Z,102464.72
2023-01-21T15:03:20.242Z,102467.34
2023-01-21T15:06:09.432Z,102460.41
2023-01-21T15:09:00.328Z,102471.75
2023-01-21T15:11:45.134Z,102461.47
2023-01-21T15:14:36.280Z,102462.25
2023-01-21T15:17:44.171Z,102473.50
2023-01-21T15:20:47.539Z,102471.75
2023-01-21T15:23:32.704Z,102472.66
2023-01-21T15:26:19.944Z,102468.28
2023-01-21T15:29:33.689Z,102470.78
2023-01-21T15:32:30.615Z,102469.22
2023-01-21T15:35:29.735Z,102480.59
2023-01-21T15:38:15.671Z,102486.66
2023-01-21T15:41:08.587Z,102486.59
2023-01-21T15:44:26.342Z,102489.38
2023-01-21T15:47:14.124Z,102496.06
2023-01-21T15:50:24.391Z,102498.16
2023-01-21T15:53:38.023Z,102498.97
2023-01-21T15:56:48.775Z,102488.56
2023-01-21T15:59:48.828Z,102490.38
2023-01-21T16:02:51.785Z,102480.22
2023-01-21T16:05:46.363Z,102488.94
2023-01-21T16:08:50.292Z,102490.81
2023-01-21T16:11:58.272Z,102497.63
2023-01-21T16:15:01.985Z,102498.41
2023-01-21T16:18:04.351Z,102502.22
2023-01-21T16:20:53.257Z,102501.88
2023-01-21T16:23:42.285Z,102499.66
2023-01-21T16:26:30.381Z,102511.72
2023-01-21T16:29:16.839Z,102503.09
2023-01-21T16:32:01.771Z,102496.94
2023-01-21T16:34:46.863Z,102503.59
2023-01-21T16:37:32.612Z,102513.00
2023-01-21T16:40:29.527Z,102507.69
2023-01-21T16:43:27.441Z,102510.63
2023-01-21T16:46:15.933Z,102513.28
2023-01-21T16:49:04.528Z,102513.16
2023-01-21T16:51:59.052Z,102513.09
2023-01-21T16:54:48.652Z,102508.91
2023-01-21T16:57:33.522Z,102515.88
2023-01-21T17:00:36.535Z,102505.41
2023-01-21T17:03:23.274Z,102509.81
2023-01-21T17:06:19.195Z,102514.13
2023-01-21T17:09:06.951Z,102510.84
2023-01-21T17:11:52.159Z,102510.72
2023-01-21T17:14:37.331Z,102499.28
2023-01-21T17:17:23.751Z,102506.25
2023-01-21T17:20:41.519Z,102509.97
2023-01-21T17:23:31.378Z,102513.25
2023-01-21T17:26:27.403Z,102515.84
2023-01-21T17:29:29.770Z,102509.66
2023-01-21T17:32:33.556Z,102522.44
2023-01-21T17:35:22.976Z,102527.75
2023-01-21T17:38:28.821Z,102527.25
2023-01-21T17:41:25.065Z,102524.53
2023-01-21T17:44:22.329Z,102526.16
2023-01-21T17:47:23.565Z,102528.88
2023-01-21T17:50:32.285Z,102536.53
2023-01-21T17:53:22.447Z,102533.22
2023-01-21T17:56:07.991Z,102528.47
2023-01-21T17:58:53.356Z,102528.47
2023-01-21T18:01:38.663Z,102536.91
2023-01-21T18:04:23.550Z,102532.75
2023-01-21T18:07:22.661Z,102536.00
2023-01-21T18:10:21.083Z,102534.16
2023-01-21T18:13:06.887Z,102537.63
2023-01-21T18:15:54.021Z,102544.84
2023-01-21T18:18:39.738Z,102552.78
2023-01-21T18:21:24.700Z,102544.84
2023-01-21T18:24:11.221Z,102559.66
2023-01-21T18:26:57.554Z,102559.81
2023-01-21T18:29:43.956Z,102558.88
2023-01-21T18:32:28.722Z,102561.19
2023-01-21T18:35:15.983Z,102548.16
2023-01-21T18:38:01.183Z,102561.31
2023-01-21T18:40:45.990Z,102550.78
2023-01-21T18:43:31.035Z,102566.50
2023-01-21T18:46:16.346Z,102558.72
2023-01-21T18:49:05.656Z,102557.91
2023-01-21T18:51:50.461Z,102550.91
2023-01-21T18:54:35.357Z,102550.88
2023-01-21T18:57:22.386Z,102552.91
2023-01-21T19:00:32.110Z,102552.81
2023-01-21T19:03:17.315Z,102556.97
2023-01-21T19:06:02.538Z,102550.38
2023-01-21T19:08:48.579Z,102554.44
2023-01-21T19:11:33.360Z,102551.06
2023-01-21T19:14:18.466Z,102551.06
2023-01-21T19:17:03.983Z,102550.28
2023-01-21T19:19:49.105Z,102543.41
2023-01-21T19:22:34.078Z,102544.47
2023-01-21T19:25:20.364Z,102546.97
2023-01-21T19:28:05.519Z,102539.69
2023-01-21T19:30:55.080Z,102546.53
2023-01-21T19:33:42.727Z,102539.47
2023-01-21T19:36:27.605Z,102545.84
2023-01-21T19:39:23.753Z,102542.19
2023-01-21T19:42:14.429Z,102539.41
2023-01-21T19:44:59.573Z,102535.16
2023-01-21T19:47:46.668Z,102539.38
2023-01-21T19:50:31.636Z,102529.81
2023-01-21T19:53:18.403Z,102528.16
2023-01-21T19:56:05.069Z,102531.94
2023-01-21T19:58:50.788Z,102534.47
2023-01-21T20:01:35.724Z,102518.88
2023-01-21T20:04:20.400Z,102525.75
2023-01-21T20:07:05.722Z,102527.44
2023-01-21T20:09:50.795Z,102535.59
2023-01-21T20:12:35.654Z,102535.22
2023-01-21T20:15:31.980Z,102532.88
2023-01-21T20:18:21.866Z,102533.81
2023-01-21T20:21:07.982Z,102540.22
2023-01-21T20:23:52.728Z,102543.53
2023-01-21T20:26:38.372Z,102535.09
2023-01-21T20:29:23.527Z,102529.78
2023-01-21T20:32:10.288Z,102522.47
2023-01-21T20:34:55.377Z,102513.88
2023-01-21T20:37:40.738Z,102521.53
2023-01-21T20:40:27.802Z,102530.03
2023-01-21T20:43:12.784Z,102537.84
2023-01-21T20:46:01.397Z,102522.97
2023-01-21T20:48:46.472Z,102519.63
2023-01-21T20:51:31.372Z,102520.47
2023-01-21T20:54:16.225Z,102504.22
2023-01-21T20:57:00.982Z,102517.97
2023-01-21T20:59:45.866Z,102508.28
2023-01-21T21:02:31.109Z,102519.09
2023-01-21T21:05:19.730Z,102511.78
2023-01-21T21:08:05.171Z,102511.78
2023-01-21T21:10:50.730Z,102501.53
2023-01-21T21:13:36.192Z,102497.34
2023-01-21T21:16:24.879Z,102505.28
2023-01-21T21:19:12.189Z,102506.22
2023-01-21T21:21:57.259Z,102493.97
2023-01-21T21:24:42.169Z,102493.91
2023-01-21T21:27:26.912Z,102489.56
2023-01-21T21:30:17.332Z,102491.69
2023-01-21T21:33:02.329Z,102489.00
2023-01-21T21:35:47.362Z,102482.22
2023-01-21T21:38:32.563Z,102491.03
2023-01-21T21:41:38.454Z,102481.44
2023-01-21T21:44:23.544Z,102499.69
2023-01-21T21:47:30.276Z,102500.41
2023-01-21T21:50:15.432Z,102505.63
2023-01-21T21:53:00.609Z,102499.53
2023-01-21T21:55:45.686Z,102501.25
2023-01-21T21:58:30.564Z,102497.06
2023-01-21T22:01:24.262Z,102491.69
2023-01-21T22:04:09.182Z,102479.72
2023-01-21T22:06:54.328Z,102482.13
2023-01-21T22:09:39.018Z,102487.25
2023-01-21T22:12:24.007Z,102496.25
2023-01-21T22:15:09.069Z,102503.09
2023-01-21T22:17:53.908Z,102499.63
2023-01-21T22:20:38.666Z,102502.31
2023-01-21T22:23:23.672Z,102489.88
2023-01-21T22:26:12.923Z,102490.13
2023-01-21T22:28:57.900Z,102488.19
2023-01-21T22:31:43.353Z,102486.50
2023-01-21T22:34:28.917Z,102485.53
2023-01-21T22:37:14.088Z,102477.97
2023-01-21T22:39:58.986Z,102480.69
2023-01-21T22:42:43.764Z,102488.66
2023-01-21T22:45:28.506Z,102479.97
2023-01-21T22:48:13.367Z,102485.03
2023-01-21T22:51:00.220Z,102481.56
2023-01-21T22:53:45.215Z,102476.31
2023-01-21T22:56:50.403Z,102480.84
2023-01-21T22:59:34.965Z,102482.88
2023-01-21T23:02:22.016Z,102486.91
2023-01-21T23:05:07.397Z,102485.78
2023-01-21T23:07:53.760Z,102483.13
2023-01-21T23:10:41.493Z,102480.75
2023-01-21T23:13:26.447Z,102485.81
2023-01-21T23:16:15.252Z,102484.75
2023-01-21T23:19:00.196Z,102472.59
2023-01-21T23:21:45.009Z,102475.00
2023-01-21T23:24:29.924Z,102478.50
2023-01-21T23:27:14.623Z,102475.84
2023-01-21T23:29:59.446Z,102474.72
2023-01-21T23:32:44.374Z,102467.78
2023-01-21T23:35:29.572Z,102455.00
2023-01-21T23:38:14.478Z,102456.94
2023-01-21T23:41:06.708Z,102450.00
2023-01-21T23:43:51.699Z,102441.19
2023-01-21T23:46:36.573Z,102442.72
2023-01-21T23:49:21.360Z,102442.84
2023-01-21T23:52:12.076Z,102439.34
2023-01-21T23:54:57.233Z,102442.06
2023-01-21T23:57:42.074Z,102437.72
